Saturday, July 21, 2018, 3:36 PM EDT
Back to Local

KBID, Block Island, Block Island State Airport

Location: Block Island, RI, United States Lat: 41.167
Local Time: 3:36 PM EDT (19:36 GMT) Lon: -71.567
Time Zone: US/Eastern Elev: 108 ft

Show me the last for .
Show Decoded

2018-07-21 14:56 METAR KBID 211856Z AUTO 09013G17KT 10SM BKN006 19/17 A3012 RMK AO2 SLP202
                 T01940167 =
2018-07-21 13:56 METAR KBID 211756Z AUTO 09011G19KT 10SM OVC006 18/16 A3014 RMK AO2 SLP210 6////
                 T01830161 10211 20183 58008 =
2018-07-21 12:56 METAR KBID 211656Z AUTO 09013KT 10SM OVC006 18/16 A3016 RMK AO2 SLP216 T01830161
                 =
2018-07-21 11:56 METAR KBID 211556Z AUTO 09011G17KT 10SM OVC006 19/17 A3017 RMK AO2 RAB24E35
                 SLP218 P0000 T01890167 =
2018-07-21 11:15 METAR KBID 211515Z AUTO 09012G16KT 10SM BKN006 19/17 A3017 RMK AO2 CIG 004V008 =
2018-07-21 10:56 METAR KBID 211456Z AUTO 10010G16KT 10SM FEW008 21/17 A3017 RMK AO2 SLP218
                 T02060172 51006 =
2018-07-21 10:41 METAR KBID 211441Z AUTO 09010KT 10SM FEW008 20/17 A3016 RMK AO2 =
2018-07-21 09:56 METAR KBID 211356Z AUTO 08011KT 10SM CLR 21/16 A3016 RMK AO2 SLP216 T02110156 =
2018-07-21 08:56 METAR KBID 211256Z AUTO 08009KT 10SM CLR 21/15 A3016 RMK AO2 SLP216 T02060150 =
2018-07-21 07:56 METAR KBID 211156Z AUTO 09008KT 10SM CLR 19/15 A3015 RMK AO2 SLP212 7////
                 T01940150 10194 20156 52001 =
2018-07-21 06:56 METAR KBID 211056Z AUTO 09005KT 10SM CLR 19/14 A3015 RMK AO2 SLP213 T01940139 =
2018-07-21 05:56 METAR KBID 210956Z AUTO 11004KT 10SM CLR 16/12 A3015 RMK AO2 SLP211 T01610117 =
2018-07-21 04:56 METAR KBID 210856Z AUTO 12004KT 10SM CLR 16/11 A3015 RMK AO2 SLP211 T01610111
                 55002 =
2018-07-21 03:56 METAR KBID 210756Z AUTO 13004KT 10SM CLR 16/12 A3015 RMK AO2 SLP211 T01610117 =
2018-07-21 02:56 METAR KBID 210656Z AUTO 13004KT 10SM CLR 17/12 A3015 RMK AO2 SLP211 T01670122 =
2018-07-21 01:56 METAR KBID 210556Z AUTO 14005KT 10SM CLR 18/13 A3015 RMK AO2 SLP213 T01780133
                 10206 20172 56007 =
2018-07-21 00:56 METAR KBID 210456Z AUTO 14004KT 10SM CLR 17/13 A3016 RMK AO2 SLP215 T01720133 =
2018-07-20 23:56 METAR KBID 210356Z AUTO 15004KT 10SM CLR 18/14 A3016 RMK AO2 SLP216 T01780139
                 402560167 =
2018-07-20 22:56 METAR KBID 210256Z AUTO 16003KT 10SM CLR 19/14 A3017 RMK AO2 SLP220 T01890144
                 51006 =
2018-07-20 21:56 METAR KBID 210156Z AUTO 13003KT 10SM CLR 19/15 A3017 RMK AO2 SLP220 T01940150 =
2018-07-20 20:56 METAR KBID 210056Z AUTO 15004KT 10SM CLR 19/16 A3017 RMK AO2 SLP218 T01940156 =
2018-07-20 19:56 METAR KBID 202356Z AUTO 14006KT 10SM CLR 21/17 A3016 RMK AO2 SLP214 6////
                 T02060167 10256 20206 58002 =
2018-07-20 18:56 METAR KBID 202256Z AUTO 17009KT 10SM CLR 22/18 A3016 RMK AO2 SLP215 T02220178 =
2018-07-20 17:56 METAR KBID 202156Z AUTO 17008KT 10SM CLR 23/18 A3016 RMK AO2 SLP217 T02330183 =
2018-07-20 16:56 METAR KBID 202056Z AUTO 19010KT 10SM CLR 24/17 A3016 RMK AO2 SLP216 6////
                 T02390172 56008 =
2018-07-20 15:56 METAR KBID 201956Z AUTO 19011KT 10SM CLR 25/16 A3017 RMK AO2 SLP219 T02500161 =

Support USWX by starting your Amazon purchase here.